sensor_id;sensor_type;location;lat;lon;timestamp;pressure;altitude;pressure_sealevel;temperature;humidity
18858;BME280;9558;50.178;8.370;2024-03-23T00:55:12;97375.22;;;6.97;100.00
18858;BME280;9558;50.178;8.370;2024-03-23T00:57:58;97361.88;;;7.02;100.00
18858;BME280;9558;50.178;8.370;2024-03-23T01:00:45;97353.16;;;7.03;100.00
18858;BME280;9558;50.178;8.370;2024-03-23T01:03:31;97347.34;;;7.09;100.00
18858;BME280;9558;50.178;8.370;2024-03-23T01:06:18;97338.25;;;6.98;100.00
18858;BME280;9558;50.178;8.370;2024-03-23T01:09:04;97339.22;;;6.97;100.00
18858;BME280;9558;50.178;8.370;2024-03-23T01:11:53;97337.97;;;6.93;100.00
18858;BME280;9558;50.178;8.370;2024-03-23T01:14:39;97333.34;;;6.88;100.00
18858;BME280;9558;50.178;8.370;2024-03-23T01:17:26;97332.91;;;6.85;100.00
18858;BME280;9558;50.178;8.370;2024-03-23T01:20:12;97324.25;;;6.78;100.00
18858;BME280;9558;50.178;8.370;2024-03-23T01:22:58;97323.00;;;6.73;100.00
18858;BME280;9558;50.178;8.370;2024-03-23T01:25:51;97313.25;;;6.69;100.00
18858;BME280;9558;50.178;8.370;2024-03-23T01:28:39;97310.53;;;6.62;100.00
18858;BME280;9558;50.178;8.370;2024-03-23T01:31:25;97315.38;;;6.57;100.00
18858;BME280;9558;50.178;8.370;2024-03-23T01:34:12;97306.75;;;6.50;100.00
18858;BME280;9558;50.178;8.370;2024-03-23T01:36:58;97297.34;;;6.42;100.00
18858;BME280;9558;50.178;8.370;2024-03-23T01:39:45;97294.81;;;6.34;100.00
18858;BME280;9558;50.178;8.370;2024-03-23T01:42:31;97288.56;;;6.28;100.00
18858;BME280;9558;50.178;8.370;2024-03-23T01:45:19;97291.66;;;6.23;100.00
18858;BME280;9558;50.178;8.370;2024-03-23T01:48:06;97286.69;;;6.22;100.00
18858;BME280;9558;50.178;8.370;2024-03-23T01:50:54;97282.53;;;6.21;100.00
18858;BME280;9558;50.178;8.370;2024-03-23T01:53:40;97281.03;;;6.27;100.00
18858;BME280;9558;50.178;8.370;2024-03-23T01:56:27;97278.81;;;6.23;100.00
18858;BME280;9558;50.178;8.370;2024-03-23T01:59:14;97274.28;;;6.26;100.00
18858;BME280;9558;50.178;8.370;2024-03-23T02:02:02;97266.09;;;6.30;100.00
18858;BME280;9558;50.178;8.370;2024-03-23T02:04:48;97260.28;;;6.36;100.00
18858;BME280;9558;50.178;8.370;2024-03-23T02:07:35;97259.94;;;6.39;100.00
18858;BME280;9558;50.178;8.370;2024-03-23T02:10:21;97256.34;;;6.49;100.00
18858;BME280;9558;50.178;8.370;2024-03-23T02:13:09;97254.03;;;6.54;100.00
18858;BME280;9558;50.178;8.370;2024-03-23T02:15:55;97253.09;;;6.55;100.00
18858;BME280;9558;50.178;8.370;2024-03-23T02:18:43;97241.03;;;6.55;100.00
18858;BME280;9558;50.178;8.370;2024-03-23T02:21:29;97244.06;;;6.59;100.00
18858;BME280;9558;50.178;8.370;2024-03-23T02:24:18;97232.78;;;6.60;100.00
18858;BME280;9558;50.178;8.370;2024-03-23T02:27:05;97237.44;;;6.65;100.00
18858;BME280;9558;50.178;8.370;2024-03-23T02:29:51;97232.38;;;6.71;100.00
18858;BME280;9558;50.178;8.370;2024-03-23T02:32:37;97229.19;;;6.69;100.00
18858;BME280;9558;50.178;8.370;2024-03-23T02:35:24;97226.09;;;6.74;100.00
18858;BME280;9558;50.178;8.370;2024-03-23T02:38:10;97216.28;;;6.78;100.00
18858;BME280;9558;50.178;8.370;2024-03-23T02:41:02;97217.53;;;6.82;100.00
18858;BME280;9558;50.178;8.370;2024-03-23T02:43:49;97214.59;;;6.85;100.00
18858;BME280;9558;50.178;8.370;2024-03-23T02:46:36;97210.06;;;6.87;100.00
18858;BME280;9558;50.178;8.370;2024-03-23T02:49:23;97216.63;;;6.89;100.00
18858;BME280;9558;50.178;8.370;2024-03-23T02:52:09;97200.69;;;6.94;100.00
18858;BME280;9558;50.178;8.370;2024-03-23T02:54:56;97182.06;;;6.92;100.00
18858;BME280;9558;50.178;8.370;2024-03-23T02:57:44;97187.38;;;6.90;100.00
18858;BME280;9558;50.178;8.370;2024-03-23T03:00:31;97171.41;;;6.95;100.00
18858;BME280;9558;50.178;8.370;2024-03-23T03:03:17;97187.63;;;6.96;100.00
18858;BME280;9558;50.178;8.370;2024-03-23T03:06:04;97199.00;;;7.01;100.00
18858;BME280;9558;50.178;8.370;2024-03-23T03:08:50;97200.41;;;7.04;100.00
18858;BME280;9558;50.178;8.370;2024-03-23T03:11:37;97192.28;;;7.00;100.00
18858;BME280;9558;50.178;8.370;2024-03-23T03:14:24;97184.19;;;7.03;100.00
18858;BME280;9558;50.178;8.370;2024-03-23T03:17:11;97168.22;;;7.08;100.00
18858;BME280;9558;50.178;8.370;2024-03-23T03:19:57;97166.81;;;7.05;100.00
18858;BME280;9558;50.178;8.370;2024-03-23T03:22:44;97151.66;;;7.11;100.00
18858;BME280;9558;50.178;8.370;2024-03-23T03:25:30;97153.06;;;7.13;100.00
18858;BME280;9558;50.178;8.370;2024-03-23T03:28:17;97151.88;;;7.16;100.00
18858;BME280;9558;50.178;8.370;2024-03-23T03:31:04;97146.06;;;7.22;100.00
18858;BME280;9558;50.178;8.370;2024-03-23T03:33:51;97147.03;;;7.21;100.00
18858;BME280;9558;50.178;8.370;2024-03-23T03:36:37;97173.03;;;7.26;100.00
18858;BME280;9558;50.178;8.370;2024-03-23T03:39:24;97163.69;;;7.25;100.00
18858;BME280;9558;50.178;8.370;2024-03-23T03:42:10;97177.81;;;7.29;100.00
18858;BME280;9558;50.178;8.370;2024-03-23T03:44:57;97181.44;;;7.35;100.00
18858;BME280;9558;50.178;8.370;2024-03-23T03:47:45;97196.06;;;7.34;100.00
18858;BME280;9558;50.178;8.370;2024-03-23T03:50:31;97220.84;;;7.35;100.00
18858;BME280;9558;50.178;8.370;2024-03-23T03:53:18;97219.41;;;7.33;100.00
18858;BME280;9558;50.178;8.370;2024-03-23T03:56:04;97231.22;;;7.27;100.00
18858;BME280;9558;50.178;8.370;2024-03-23T03:58:52;97247.38;;;7.21;100.00
18858;BME280;9558;50.178;8.370;2024-03-23T04:01:38;97246.84;;;7.11;100.00
18858;BME280;9558;50.178;8.370;2024-03-23T04:04:26;97249.13;;;7.05;100.00
18858;BME280;9558;50.178;8.370;2024-03-23T04:07:12;97257.72;;;6.98;100.00
18858;BME280;9558;50.178;8.370;2024-03-23T04:09:59;97274.00;;;6.90;100.00
18858;BME280;9558;50.178;8.370;2024-03-23T04:12:47;97261.84;;;6.84;100.00
18858;BME280;9558;50.178;8.370;2024-03-23T04:15:34;97264.13;;;6.79;100.00
18858;BME280;9558;50.178;8.370;2024-03-23T04:18:20;97251.97;;;6.72;100.00
18858;BME280;9558;50.178;8.370;2024-03-23T04:21:09;97252.69;;;6.66;100.00
18858;BME280;9558;50.178;8.370;2024-03-23T04:23:55;97241.75;;;6.64;100.00
18858;BME280;9558;50.178;8.370;2024-03-23T04:26:42;97229.31;;;6.53;100.00
18858;BME280;9558;50.178;8.370;2024-03-23T04:29:28;97225.22;;;6.44;100.00
18858;BME280;9558;50.178;8.370;2024-03-23T04:32:15;97230.75;;;6.32;100.00
18858;BME280;9558;50.178;8.370;2024-03-23T04:35:01;97225.31;;;6.27;100.00
18858;BME280;9558;50.178;8.370;2024-03-23T04:37:52;97224.38;;;6.20;100.00
18858;BME280;9558;50.178;8.370;2024-03-23T04:40:41;97252.38;;;6.15;100.00
18858;BME280;9558;50.178;8.370;2024-03-23T04:43:28;97247.59;;;6.12;100.00
18858;BME280;9558;50.178;8.370;2024-03-23T04:46:15;97249.50;;;6.10;100.00
18858;BME280;9558;50.178;8.370;2024-03-23T04:49:02;97248.06;;;6.07;100.00
18858;BME280;9558;50.178;8.370;2024-03-23T04:51:50;97249.50;;;6.10;100.00
18858;BME280;9558;50.178;8.370;2024-03-23T04:54:38;97242.63;;;6.10;100.00
18858;BME280;9558;50.178;8.370;2024-03-23T04:57:26;97252.72;;;6.12;100.00
18858;BME280;9558;50.178;8.370;2024-03-23T05:00:13;97254.47;;;6.11;100.00
18858;BME280;9558;50.178;8.370;2024-03-23T05:03:03;97240.84;;;6.11;100.00
18858;BME280;9558;50.178;8.370;2024-03-23T05:05:50;97245.97;;;6.11;100.00
18858;BME280;9558;50.178;8.370;2024-03-23T05:08:36;97248.72;;;6.09;100.00
18858;BME280;9558;50.178;8.370;2024-03-23T05:11:24;97253.72;;;6.02;100.00
18858;BME280;9558;50.178;8.370;2024-03-23T05:14:11;97248.94;;;5.99;100.00
18858;BME280;9558;50.178;8.370;2024-03-23T05:16:58;97246.34;;;5.91;100.00
18858;BME280;9558;50.178;8.370;2024-03-23T05:19:44;97260.03;;;5.92;100.00
18858;BME280;9558;50.178;8.370;2024-03-23T05:22:31;97270.44;;;5.90;100.00
18858;BME280;9558;50.178;8.370;2024-03-23T05:25:17;97295.16;;;5.91;100.00
18858;BME280;9558;50.178;8.370;2024-03-23T05:28:06;97301.25;;;5.90;100.00
18858;BME280;9558;50.178;8.370;2024-03-23T05:30:52;97287.63;;;5.89;100.00
18858;BME280;9558;50.178;8.370;2024-03-23T05:33:39;97303.19;;;5.88;100.00
18858;BME280;9558;50.178;8.370;2024-03-23T05:36:27;97318.44;;;5.81;100.00
18858;BME280;9558;50.178;8.370;2024-03-23T05:39:13;97327.78;;;5.74;100.00
18858;BME280;9558;50.178;8.370;2024-03-23T05:42:02;97309.34;;;5.70;100.00
18858;BME280;9558;50.178;8.370;2024-03-23T05:44:49;97299.09;;;5.62;100.00
18858;BME280;9558;50.178;8.370;2024-03-23T05:47:36;97321.88;;;5.57;100.00
18858;BME280;9558;50.178;8.370;2024-03-23T05:50:22;97321.09;;;5.48;100.00
18858;BME280;9558;50.178;8.370;2024-03-23T05:53:09;97345.66;;;5.43;100.00
18858;BME280;9558;50.178;8.370;2024-03-23T05:56:00;97349.50;;;5.39;100.00
18858;BME280;9558;50.178;8.370;2024-03-23T05:58:49;97348.06;;;5.28;100.00
18858;BME280;9558;50.178;8.370;2024-03-23T06:01:39;97346.97;;;5.22;100.00
18858;BME280;9558;50.178;8.370;2024-03-23T06:04:26;97333.34;;;5.22;100.00
18858;BME280;9558;50.178;8.370;2024-03-23T06:07:15;97323.38;;;5.18;100.00
18858;BME280;9558;50.178;8.370;2024-03-23T06:10:02;97317.78;;;5.15;100.00
18858;BME280;9558;50.178;8.370;2024-03-23T06:12:48;97299.84;;;5.07;100.00
18858;BME280;9558;50.178;8.370;2024-03-23T06:15:37;97278.88;;;5.03;100.00
18858;BME280;9558;50.178;8.370;2024-03-23T06:18:25;97309.78;;;4.93;100.00
18858;BME280;9558;50.178;8.370;2024-03-23T06:21:15;97308.81;;;4.86;100.00
18858;BME280;9558;50.178;8.370;2024-03-23T06:24:01;97326.75;;;4.78;100.00
18858;BME280;9558;50.178;8.370;2024-03-23T06:26:48;97350.31;;;4.73;100.00
18858;BME280;9558;50.178;8.370;2024-03-23T06:29:34;97364.25;;;4.71;100.00
18858;BME280;9558;50.178;8.370;2024-03-23T06:32:22;97385.69;;;4.70;100.00
18858;BME280;9558;50.178;8.370;2024-03-23T06:35:09;97404.91;;;4.65;100.00
18858;BME280;9558;50.178;8.370;2024-03-23T06:37:56;97424.13;;;4.70;100.00
18858;BME280;9558;50.178;8.370;2024-03-23T06:40:44;97424.78;;;4.72;100.00
18858;BME280;9558;50.178;8.370;2024-03-23T06:43:33;97443.88;;;4.77;100.00
18858;BME280;9558;50.178;8.370;2024-03-23T06:46:20;97441.00;;;4.80;100.00
18858;BME280;9558;50.178;8.370;2024-03-23T06:49:06;97442.13;;;4.86;100.00
18858;BME280;9558;50.178;8.370;2024-03-23T06:51:54;97437.63;;;4.88;100.00
18858;BME280;9558;50.178;8.370;2024-03-23T06:54:40;97450.13;;;4.91;100.00
18858;BME280;9558;50.178;8.370;2024-03-23T06:57:27;97471.00;;;4.96;100.00
18858;BME280;9558;50.178;8.370;2024-03-23T07:00:14;97466.19;;;5.01;100.00
18858;BME280;9558;50.178;8.370;2024-03-23T07:03:01;97466.69;;;5.05;100.00
18858;BME280;9558;50.178;8.370;2024-03-23T07:05:49;97475.84;;;5.08;100.00
18858;BME280;9558;50.178;8.370;2024-03-23T07:08:37;97474.41;;;5.22;100.00
18858;BME280;9558;50.178;8.370;2024-03-23T07:11:24;97482.91;;;5.22;100.00
18858;BME280;9558;50.178;8.370;2024-03-23T07:14:11;97496.06;;;5.19;100.00
18858;BME280;9558;50.178;8.370;2024-03-23T07:16:58;97500.19;;;5.20;100.00
18858;BME280;9558;50.178;8.370;2024-03-23T07:19:47;97506.00;;;5.22;100.00
18858;BME280;9558;50.178;8.370;2024-03-23T07:22:34;97513.38;;;5.25;100.00
18858;BME280;9558;50.178;8.370;2024-03-23T07:25:24;97510.81;;;5.33;100.00
18858;BME280;9558;50.178;8.370;2024-03-23T07:28:12;97509.41;;;5.47;100.00
18858;BME280;9558;50.178;8.370;2024-03-23T07:31:05;97514.69;;;5.62;100.00
18858;BME280;9558;50.178;8.370;2024-03-23T07:33:52;97538.16;;;6.17;100.00
18858;BME280;9558;50.178;8.370;2024-03-23T07:36:38;97524.50;;;6.25;100.00
18858;BME280;9558;50.178;8.370;2024-03-23T07:39:25;97534.91;;;6.31;100.00
18858;BME280;9558;50.178;8.370;2024-03-23T07:42:14;97535.22;;;6.36;100.00
18858;BME280;9558;50.178;8.370;2024-03-23T07:45:01;97549.88;;;6.36;100.00
18858;BME280;9558;50.178;8.370;2024-03-23T07:47:48;97567.34;;;6.32;100.00
18858;BME280;9558;50.178;8.370;2024-03-23T07:50:34;97568.63;;;6.36;100.00
18858;BME280;9558;50.178;8.370;2024-03-23T07:53:21;97577.63;;;6.32;100.00
18858;BME280;9558;50.178;8.370;2024-03-23T07:56:08;97574.75;;;6.35;100.00
18858;BME280;9558;50.178;8.370;2024-03-23T07:58:57;97580.38;;;6.39;100.00
18858;BME280;9558;50.178;8.370;2024-03-23T08:01:43;97584.91;;;6.93;100.00
18858;BME280;9558;50.178;8.370;2024-03-23T08:04:30;97588.66;;;7.22;100.00
18858;BME280;9558;50.178;8.370;2024-03-23T08:07:16;97592.13;;;7.37;100.00
18858;BME280;9558;50.178;8.370;2024-03-23T08:10:03;97601.38;;;7.47;100.00
18858;BME280;9558;50.178;8.370;2024-03-23T08:12:49;97599.28;;;7.50;100.00
18858;BME280;9558;50.178;8.370;2024-03-23T08:15:38;97603.94;;;7.55;100.00
18858;BME280;9558;50.178;8.370;2024-03-23T08:18:26;97610.44;;;7.66;100.00
18858;BME280;9558;50.178;8.370;2024-03-23T08:21:14;97611.53;;;7.71;100.00
18858;BME280;9558;50.178;8.370;2024-03-23T08:24:00;97611.28;;;7.89;100.00
18858;BME280;9558;50.178;8.370;2024-03-23T08:26:47;97614.25;;;8.01;100.00
18858;BME280;9558;50.178;8.370;2024-03-23T08:29:32;97609.34;;;8.15;100.00
18858;BME280;9558;50.178;8.370;2024-03-23T08:32:21;97599.94;;;8.22;100.00
18858;BME280;9558;50.178;8.370;2024-03-23T08:35:08;97602.88;;;8.34;100.00
18858;BME280;9558;50.178;8.370;2024-03-23T08:37:55;97605.75;;;8.39;100.00
18858;BME280;9558;50.178;8.370;2024-03-23T08:40:42;97616.38;;;8.36;100.00
18858;BME280;9558;50.178;8.370;2024-03-23T08:43:29;97615.31;;;8.30;100.00
18858;BME280;9558;50.178;8.370;2024-03-23T08:46:16;97618.69;;;8.30;100.00
18858;BME280;9558;50.178;8.370;2024-03-23T08:49:04;97618.47;;;8.40;100.00
18858;BME280;9558;50.178;8.370;2024-03-23T08:51:51;97624.75;;;9.21;100.00
18858;BME280;9558;50.178;8.370;2024-03-23T08:54:37;97630.81;;;9.64;97.21
18858;BME280;9558;50.178;8.370;2024-03-23T08:57:24;97632.59;;;10.00;96.12
18858;BME280;9558;50.178;8.370;2024-03-23T09:00:11;97638.72;;;10.36;88.78
18858;BME280;9558;50.178;8.370;2024-03-23T09:02:58;97642.19;;;10.78;89.61
18858;BME280;9558;50.178;8.370;2024-03-23T09:05:46;97643.66;;;11.29;91.58
18858;BME280;9558;50.178;8.370;2024-03-23T09:08:33;97647.56;;;11.53;82.10
18858;BME280;9558;50.178;8.370;2024-03-23T09:11:20;97646.19;;;11.71;83.00
18858;BME280;9558;50.178;8.370;2024-03-23T09:14:07;97655.84;;;11.90;82.37
18858;BME280;9558;50.178;8.370;2024-03-23T09:16:54;97644.31;;;12.13;81.58
18858;BME280;9558;50.178;8.370;2024-03-23T09:19:41;97646.13;;;12.26;79.41
18858;BME280;9558;50.178;8.370;2024-03-23T09:22:29;97648.13;;;12.31;78.09
18858;BME280;9558;50.178;8.370;2024-03-23T09:25:16;97647.75;;;12.34;78.24
18858;BME280;9558;50.178;8.370;2024-03-23T09:28:01;97642.75;;;12.32;78.34
18858;BME280;9558;50.178;8.370;2024-03-23T09:30:48;97649.50;;;12.20;73.53
18858;BME280;9558;50.178;8.370;2024-03-23T09:33:35;97653.91;;;12.19;76.82
18858;BME280;9558;50.178;8.370;2024-03-23T09:36:22;97650.69;;;12.04;75.61
18858;BME280;9558;50.178;8.370;2024-03-23T09:39:09;97659.81;;;11.93;75.62
18858;BME280;9558;50.178;8.370;2024-03-23T09:41:56;97654.63;;;11.86;75.21
18858;BME280;9558;50.178;8.370;2024-03-23T09:44:42;97661.97;;;11.76;70.65
18858;BME280;9558;50.178;8.370;2024-03-23T09:47:30;97664.16;;;11.72;72.27
18858;BME280;9558;50.178;8.370;2024-03-23T09:50:18;97665.88;;;11.52;71.81
18858;BME280;9558;50.178;8.370;2024-03-23T09:53:04;97672.84;;;11.51;72.83
18858;BME280;9558;50.178;8.370;2024-03-23T09:55:52;97666.88;;;11.51;71.88
18858;BME280;9558;50.178;8.370;2024-03-23T09:58:40;97665.66;;;11.47;68.29
18858;BME280;9558;50.178;8.370;2024-03-23T10:01:29;97664.47;;;11.49;71.01
18858;BME280;9558;50.178;8.370;2024-03-23T10:04:38;97673.38;;;11.40;69.28
18858;BME280;9558;50.178;8.370;2024-03-23T10:07:25;97662.84;;;11.41;70.46
18858;BME280;9558;50.178;8.370;2024-03-23T10:10:16;97673.81;;;11.44;68.86
18858;BME280;9558;50.178;8.370;2024-03-23T10:13:03;97670.34;;;11.30;65.80
18858;BME280;9558;50.178;8.370;2024-03-23T10:15:56;97665.94;;;11.23;67.36
18858;BME280;9558;50.178;8.370;2024-03-23T10:18:42;97658.56;;;11.20;68.48
18858;BME280;9558;50.178;8.370;2024-03-23T10:21:29;97651.97;;;11.18;68.27
18858;BME280;9558;50.178;8.370;2024-03-23T10:24:15;97649.13;;;11.06;68.09
18858;BME280;9558;50.178;8.370;2024-03-23T10:27:03;97642.25;;;10.92;65.21
18858;BME280;9558;50.178;8.370;2024-03-23T10:29:50;97643.16;;;10.77;67.22
18858;BME280;9558;50.178;8.370;2024-03-23T10:32:37;97652.84;;;10.62;67.51
18858;BME280;9558;50.178;8.370;2024-03-23T10:35:23;97694.09;;;10.48;68.21
18858;BME280;9558;50.178;8.370;2024-03-23T10:38:10;97713.81;;;9.91;73.67
18858;BME280;9558;50.178;8.370;2024-03-23T10:40:57;97688.66;;;9.48;76.95
18858;BME280;9558;50.178;8.370;2024-03-23T10:43:48;97684.22;;;9.12;80.33
18858;BME280;9558;50.178;8.370;2024-03-23T10:46:36;97682.25;;;8.85;82.37
18858;BME280;9558;50.178;8.370;2024-03-23T10:49:24;97677.94;;;8.62;84.73
18858;BME280;9558;50.178;8.370;2024-03-23T10:52:11;97674.16;;;8.50;86.02
18858;BME280;9558;50.178;8.370;2024-03-23T10:54:59;97665.81;;;8.47;85.41
18858;BME280;9558;50.178;8.370;2024-03-23T10:57:50;97678.06;;;8.45;86.69
18858;BME280;9558;50.178;8.370;2024-03-23T11:00:38;97674.53;;;8.38;92.08
18858;BME280;9558;50.178;8.370;2024-03-23T11:03:33;97671.28;;;8.44;93.00
18858;BME280;9558;50.178;8.370;2024-03-23T11:06:35;97674.50;;;8.46;90.35
18858;BME280;9558;50.178;8.370;2024-03-23T11:09:41;97678.00;;;8.54;92.75
18858;BME280;9558;50.178;8.370;2024-03-23T11:12:30;97678.97;;;8.53;94.37
18858;BME280;9558;50.178;8.370;2024-03-23T11:15:19;97675.31;;;8.47;91.31
18858;BME280;9558;50.178;8.370;2024-03-23T11:18:06;97667.69;;;8.54;90.96
18858;BME280;9558;50.178;8.370;2024-03-23T11:20:55;97666.06;;;8.53;89.61
18858;BME280;9558;50.178;8.370;2024-03-23T11:23:41;97656.41;;;8.55;91.50
18858;BME280;9558;50.178;8.370;2024-03-23T11:26:28;97647.00;;;8.62;91.05
18858;BME280;9558;50.178;8.370;2024-03-23T11:29:15;97660.44;;;8.72;91.18
18858;BME280;9558;50.178;8.370;2024-03-23T11:32:04;97649.16;;;8.73;87.52
18858;BME280;9558;50.178;8.370;2024-03-23T11:34:50;97643.63;;;8.76;89.63
18858;BME280;9558;50.178;8.370;2024-03-23T11:37:38;97653.66;;;8.71;84.63
18858;BME280;9558;50.178;8.370;2024-03-23T11:40:24;97640.75;;;8.71;86.94
18858;BME280;9558;50.178;8.370;2024-03-23T11:43:13;97646.56;;;8.73;86.48
18858;BME280;9558;50.178;8.370;2024-03-23T11:45:50;97640.06;;;8.77;87.51
18858;BME280;9558;50.178;8.370;2024-03-23T11:48:38;97639.38;;;8.84;86.64
18858;BME280;9558;50.178;8.370;2024-03-23T11:51:24;97626.72;;;8.89;85.89
18858;BME280;9558;50.178;8.370;2024-03-23T11:54:13;97616.50;;;8.95;86.00
18858;BME280;9558;50.178;8.370;2024-03-23T11:57:01;97606.97;;;8.96;82.86
18858;BME280;9558;50.178;8.370;2024-03-23T11:59:49;97613.19;;;9.16;85.09
18858;BME280;9558;50.178;8.370;2024-03-23T12:02:35;97610.56;;;9.31;85.16
18858;BME280;9558;50.178;8.370;2024-03-23T12:05:22;97615.56;;;9.48;84.82
18858;BME280;9558;50.178;8.370;2024-03-23T12:08:22;97610.69;;;9.60;79.28
18858;BME280;9558;50.178;8.370;2024-03-23T12:11:11;97598.72;;;9.74;78.01
18858;BME280;9558;50.178;8.370;2024-03-23T12:13:59;97606.28;;;9.75;78.40
18858;BME280;9558;50.178;8.370;2024-03-23T12:16:45;97602.00;;;9.82;78.62
18858;BME280;9558;50.178;8.370;2024-03-23T12:19:32;97599.84;;;9.86;77.48
18858;BME280;9558;50.178;8.370;2024-03-23T12:22:20;97587.84;;;10.00;78.42
18858;BME280;9558;50.178;8.370;2024-03-23T12:25:07;97580.31;;;10.05;77.00
18858;BME280;9558;50.178;8.370;2024-03-23T12:27:58;97588.66;;;10.00;75.50
18858;BME280;9558;50.178;8.370;2024-03-23T12:30:45;97580.31;;;10.05;77.13
18858;BME280;9558;50.178;8.370;2024-03-23T12:33:32;97578.31;;;10.00;77.55
18858;BME280;9558;50.178;8.370;2024-03-23T12:36:19;97581.94;;;10.06;76.19
18858;BME280;9558;50.178;8.370;2024-03-23T12:39:05;97572.44;;;10.13;76.08
18858;BME280;9558;50.178;8.370;2024-03-23T12:41:52;97578.28;;;10.22;73.90
18858;BME280;9558;50.178;8.370;2024-03-23T12:44:40;97576.09;;;10.26;74.21
18858;BME280;9558;50.178;8.370;2024-03-23T12:47:27;97557.03;;;10.27;73.23
18858;BME280;9558;50.178;8.370;2024-03-23T12:50:13;97598.69;;;10.10;70.02
18858;BME280;9558;50.178;8.370;2024-03-23T12:53:00;97623.78;;;9.95;69.80
18858;BME280;9558;50.178;8.370;2024-03-23T12:55:46;97661.09;;;9.71;71.29
18858;BME280;9558;50.178;8.370;2024-03-23T12:58:33;97701.84;;;9.24;77.40
18858;BME280;9558;50.178;8.370;2024-03-23T13:01:21;97717.00;;;8.74;82.11
18858;BME280;9558;50.178;8.370;2024-03-23T13:04:07;97710.94;;;8.20;88.63
18858;BME280;9558;50.178;8.370;2024-03-23T13:06:54;97704.91;;;7.73;89.79
18858;BME280;9558;50.178;8.370;2024-03-23T13:09:42;97702.31;;;7.34;94.43
18858;BME280;9558;50.178;8.370;2024-03-23T13:12:28;97706.59;;;7.02;94.21
18858;BME280;9558;50.178;8.370;2024-03-23T13:15:15;97697.47;;;6.74;95.01
18858;BME280;9558;50.178;8.370;2024-03-23T13:18:04;97689.75;;;6.50;97.30
18858;BME280;9558;50.178;8.370;2024-03-23T13:20:52;97694.88;;;6.25;100.00
18858;BME280;9558;50.178;8.370;2024-03-23T13:23:38;97694.47;;;5.95;100.00
18858;BME280;9558;50.178;8.370;2024-03-23T13:26:27;97669.41;;;5.81;100.00
18858;BME280;9558;50.178;8.370;2024-03-23T13:29:13;97645.63;;;5.70;100.00
18858;BME280;9558;50.178;8.370;2024-03-23T13:32:00;97629.25;;;5.71;100.00
18858;BME280;9558;50.178;8.370;2024-03-23T13:34:48;97634.72;;;5.77;100.00
18858;BME280;9558;50.178;8.370;2024-03-23T13:37:36;97626.88;;;5.78;100.00
18858;BME280;9558;50.178;8.370;2024-03-23T13:40:22;97633.13;;;5.84;100.00
18858;BME280;9558;50.178;8.370;2024-03-23T13:43:10;97633.81;;;5.86;100.00
18858;BME280;9558;50.178;8.370;2024-03-23T13:45:48;97635.88;;;5.91;100.00
18858;BME280;9558;50.178;8.370;2024-03-23T13:48:35;97633.84;;;6.02;100.00
18858;BME280;9558;50.178;8.370;2024-03-23T13:51:25;97628.06;;;6.25;100.00
18858;BME280;9558;50.178;8.370;2024-03-23T13:54:12;97624.84;;;6.48;100.00
18858;BME280;9558;50.178;8.370;2024-03-23T13:57:00;97624.97;;;6.63;100.00
18858;BME280;9558;50.178;8.370;2024-03-23T13:59:46;97626.06;;;6.93;100.00
18858;BME280;9558;50.178;8.370;2024-03-23T14:02:34;97625.94;;;7.26;100.00
18858;BME280;9558;50.178;8.370;2024-03-23T14:05:20;97616.50;;;7.50;100.00
18858;BME280;9558;50.178;8.370;2024-03-23T14:08:09;97621.22;;;7.69;100.00
18858;BME280;9558;50.178;8.370;2024-03-23T14:10:55;97606.81;;;7.83;100.00
18858;BME280;9558;50.178;8.370;2024-03-23T14:13:43;97615.28;;;7.92;100.00
18858;BME280;9558;50.178;8.370;2024-03-23T14:16:30;97606.16;;;8.04;100.00
18858;BME280;9558;50.178;8.370;2024-03-23T14:19:17;97596.44;;;8.15;100.00
18858;BME280;9558;50.178;8.370;2024-03-23T14:22:03;97597.63;;;8.27;100.00
18858;BME280;9558;50.178;8.370;2024-03-23T14:24:51;97589.28;;;8.40;100.00
18858;BME280;9558;50.178;8.370;2024-03-23T14:27:37;97586.47;;;8.50;100.00
18858;BME280;9558;50.178;8.370;2024-03-23T14:30:24;97580.28;;;8.59;100.00
18858;BME280;9558;50.178;8.370;2024-03-23T14:33:10;97588.28;;;8.64;97.77
18858;BME280;9558;50.178;8.370;2024-03-23T14:35:58;97581.81;;;8.83;94.60
18858;BME280;9558;50.178;8.370;2024-03-23T14:38:47;97580.38;;;8.95;97.16
18858;BME280;9558;50.178;8.370;2024-03-23T14:41:35;97580.38;;;9.10;97.85
18858;BME280;9558;50.178;8.370;2024-03-23T14:44:21;97584.69;;;9.25;96.09
18858;BME280;9558;50.178;8.370;2024-03-23T14:47:08;97583.22;;;9.37;93.78
18858;BME280;9558;50.178;8.370;2024-03-23T14:49:57;97584.97;;;9.51;94.24
18858;BME280;9558;50.178;8.370;2024-03-23T14:52:48;97588.31;;;9.67;91.66
18858;BME280;9558;50.178;8.370;2024-03-23T14:55:36;97590.41;;;9.78;89.94
18858;BME280;9558;50.178;8.370;2024-03-23T14:58:24;97563.31;;;9.89;88.50
18858;BME280;9558;50.178;8.370;2024-03-23T15:01:11;97572.38;;;10.07;88.42
18858;BME280;9558;50.178;8.370;2024-03-23T15:03:58;97573.63;;;10.11;81.47
18858;BME280;9558;50.178;8.370;2024-03-23T15:06:45;97563.66;;;10.08;83.27
18858;BME280;9558;50.178;8.370;2024-03-23T15:09:35;97565.56;;;9.99;83.07
18858;BME280;9558;50.178;8.370;2024-03-23T15:12:21;97563.09;;;9.91;82.87
18858;BME280;9558;50.178;8.370;2024-03-23T15:15:09;97571.16;;;9.81;81.21
18858;BME280;9558;50.178;8.370;2024-03-23T15:17:57;97591.28;;;9.64;82.42
18858;BME280;9558;50.178;8.370;2024-03-23T15:20:52;97644.50;;;9.28;82.62
18858;BME280;9558;50.178;8.370;2024-03-23T15:23:39;97682.69;;;8.73;88.43
18858;BME280;9558;50.178;8.370;2024-03-23T15:26:24;97669.44;;;8.30;90.83
18858;BME280;9558;50.178;8.370;2024-03-23T15:29:14;97667.78;;;7.91;90.65
18858;BME280;9558;50.178;8.370;2024-03-23T15:32:08;97651.16;;;7.39;94.53
18858;BME280;9558;50.178;8.370;2024-03-23T15:35:04;97654.97;;;6.95;95.99
18858;BME280;9558;50.178;8.370;2024-03-23T15:37:53;97636.72;;;6.65;95.33
18858;BME280;9558;50.178;8.370;2024-03-23T15:40:40;97604.91;;;6.42;97.96
18858;BME280;9558;50.178;8.370;2024-03-23T15:43:26;97578.63;;;6.23;98.63
18858;BME280;9558;50.178;8.370;2024-03-23T15:46:13;97576.38;;;6.12;100.00
18858;BME280;9558;50.178;8.370;2024-03-23T15:49:01;97585.38;;;6.08;100.00
18858;BME280;9558;50.178;8.370;2024-03-23T15:51:49;97590.81;;;6.13;100.00
18858;BME280;9558;50.178;8.370;2024-03-23T15:54:35;97575.22;;;6.14;100.00